Have a Safe July 4th! 

Flight Track Log - Related Links

Times and Time Zones

All times are in EST time to prevent confusion due to time zone crossing. See the N53NW flight status page for this flight to view local times or setup timezone preferences in your user account.

Time Position Orientation Groundspeed Altitude Reporting Facility
EST Latitude Longitude Course Direction KTS MPH feet Rate Location/Type
Thu 11:04:09 AM 38.7667 -90.3833 341° North 190 219 2,000  Level Gateway (St. Louis) TRACON
Thu 11:05:12 AM 38.8192 -90.4064 341° North 214 246 4,200 3,339 Climbing Kansas City Center
Thu 11:06:13 AM 38.8628 -90.3494 45° Northeast 254 292 8,900 4,146 Climbing Kansas City Center
Thu 11:07:15 AM 38.8631 -90.2519 90° East 271 312 12,700 2,952 Climbing Kansas City Center
Thu 11:08:17 AM 38.8519 -90.1422 97° East 301 346 15,000 2,244 Climbing Kansas City Center
Thu 11:09:18 AM 38.8414 -90.0292 97° East 306 352 17,300 3,073 Climbing Kansas City Center
Thu 11:10:20 AM 38.8297 -89.9017 97° East 308 354 21,300 3,242 Climbing Kansas City Center
Thu 11:11:22 AM 38.8189 -89.7844 97° East 321 369 24,000 2,565 Climbing Kansas City Center
Thu 11:12:24 AM 38.8058 -89.6569 97° East 347 399 26,600 2,488 Climbing Kansas City Center
Thu 11:13:25 AM 38.7939 -89.5264 97° East 367 422 29,100 2,390 Climbing Kansas City Center
Thu 11:14:27 AM 38.8067 -89.3997 83° East 358 412 31,500 2,177 Climbing Kansas City Center
Thu 11:15:29 AM 38.8222 -89.2744 81° East 356 410 33,600 1,935 Climbing Kansas City Center
Thu 11:16:31 AM 38.8417 -89.1225 81° East 361 415 35,500 1,452 Climbing Kansas City Center
Thu 11:17:33 AM 38.8583 -88.9931 81° East 367 422 36,600 919 Climbing Kansas City Center
Thu 11:18:35 AM 38.8753 -88.8544 81° East 388 447 37,400 871 Climbing Kansas City Center
Thu 11:19:37 AM 38.8928 -88.7131 81° East 397 457 38,400 968 Climbing Kansas City Center
Thu 11:20:39 AM 38.9117 -88.5636 81° East 404 465 39,400 976 Climbing Kansas City Center
Thu 11:21:40 AM 38.9383 -88.4219 76° East 405 466 40,400 927 Climbing Kansas City Center
Thu 11:22:42 AM 38.9742 -88.2889 71° East 395 455 41,300 774 Climbing Kansas City Center
Thu 11:23:44 AM 39.0225 -88.1608 64° Northeast 394 453 42,000 623 Climbing Kansas City Center
Thu 11:24:28 AM 39.0617 -88.0644 62° Northeast 391 450 42,400 514 Climbing Indianapolis Center
Thu 11:25:29 AM 39.1133 -87.9386 62° Northeast 394 453 42,900 293 Climbing Indianapolis Center
Thu 11:26:31 AM 39.1647 -87.8100 63° Northeast 398 458 43,000 49 Climbing Indianapolis Center
Thu 11:27:32 AM 39.2197 -87.6764 62° Northeast 412 474 43,000 49 Level Indianapolis Center
Thu 11:28:33 AM 39.2783 -87.5258 63° Northeast 424 488 43,100 541 Climbing Indianapolis Center
Thu 11:29:34 AM 39.3331 -87.3925 62° Northeast 425 489 44,100 787 Climbing Indianapolis Center
Thu 11:30:35 AM 39.3842 -87.2617 63° Northeast 415 478 44,700 439 Climbing Indianapolis Center
Thu 11:31:37 AM 39.4339 -87.1356 63° Northeast 402 463 45,000 146 Climbing Indianapolis Center
Thu 11:32:38 AM 39.4856 -87.0056 63° Northeast 403 464 45,000  Level Indianapolis Center
Thu 11:33:39 AM 39.5375 -86.8733 63° Northeast 411 473 45,000  Level Indianapolis Center
Thu 11:34:40 AM 39.5903 -86.7403 63° Northeast 416 479 45,000  Level Indianapolis Center
Thu 11:35:41 AM 39.6517 -86.5797 64° Northeast 416 479 45,000  Level Indianapolis Center
Thu 11:36:42 AM 39.7028 -86.4444 64° Northeast 417 480 45,000  Level Indianapolis Center
Thu 11:37:44 AM 39.7531 -86.3117 64° Northeast 414 476 45,000  Level Indianapolis Center
Thu 11:38:45 AM 39.8053 -86.1797 63° Northeast 412 474 45,000  Level Indianapolis Center
Thu 11:39:46 AM 39.8492 -86.0633 64° Northeast 410 472 45,000  Level Indianapolis Center
Thu 11:40:47 AM 39.9089 -85.9044 64° Northeast 409 471 45,000  Level Indianapolis Center
Thu 11:41:48 AM 39.9597 -85.7711 64° Northeast 412 474 45,000  Level Indianapolis Center
Thu 11:42:49 AM 40.0083 -85.6389 64° Northeast 408 470 45,000  Level Indianapolis Center
Thu 11:43:51 AM 40.0583 -85.5067 64° Northeast 408 470 45,000  Level Indianapolis Center
Thu 11:44:52 AM 40.1069 -85.3747 64° Northeast 407 468 45,000  Level Indianapolis Center
Thu 11:45:53 AM 40.1561 -85.2433 64° Northeast 405 466 45,000  Level Indianapolis Center
Thu 11:46:54 AM 40.2056 -85.1103 64° Northeast 407 468 45,000  Level Indianapolis Center
Thu 11:47:55 AM 40.2542 -84.9753 65° Northeast 410 472 45,000  Level Indianapolis Center
Thu 11:48:56 AM 40.3072 -84.8289 65° Northeast 415 478 45,000  Level Indianapolis Center
Thu 11:49:57 AM 40.3572 -84.6919 64° Northeast 415 478 45,000  Level Indianapolis Center
Thu 11:50:59 AM 40.4081 -84.5536 64° Northeast 419 482 45,000  Level Indianapolis Center
Thu 11:52:00 AM 40.4567 -84.4161 65° Northeast 417 480 45,000  Level Indianapolis Center
Thu 11:53:01 AM 40.5061 -84.2794 65° Northeast 415 478 45,000  Level Indianapolis Center
Thu 11:54:02 AM 40.5564 -84.1411 64° Northeast 418 481 45,000  Level Indianapolis Center
Thu 11:55:03 AM 40.6150 -83.9756 65° Northeast 416 479 45,000  Level Indianapolis Center
Thu 11:56:04 AM 40.6628 -83.8389 65° Northeast 412 474 45,000  Level Indianapolis Center
Thu 11:57:05 AM 40.7106 -83.7008 65° Northeast 412 474 45,000  Level Indianapolis Center
Thu 11:58:06 AM 40.7586 -83.5625 65° Northeast 413 475 45,000  Level Indianapolis Center
Thu 11:59:08 AM 40.8031 -83.4364 65° Northeast 415 478 45,000  Level Indianapolis Center
Thu 12:00:09 PM 40.8517 -83.2961 65° Northeast 416 479 45,000  Level Indianapolis Center
Thu 12:00:58 PM 40.8944 -83.1725 65° Northeast 416 479 45,000  Level Cleveland Center
Thu 12:01:59 PM 40.9414 -83.0361 65° Northeast 419 482 45,000  Level Cleveland Center
Thu 12:03:00 PM 40.9903 -82.8956 65° Northeast 418 481 45,000  Level Cleveland Center
Thu 12:04:01 PM 41.0375 -82.7528 66° East 419 482 45,000  Level Cleveland Center
Thu 12:05:02 PM 41.0864 -82.6103 65° Northeast 421 484 45,000  Level Cleveland Center
Thu 12:06:03 PM 41.1342 -82.4675 66° East 420 483 45,000  Level Cleveland Center
Thu 12:07:04 PM 41.1817 -82.3242 66° East 420 483 45,000  Level Cleveland Center
Thu 12:08:04 PM 41.2383 -82.1536 66° East 426 490 45,000  Level Cleveland Center
Thu 12:09:05 PM 41.2836 -82.0186 66° East 424 488 45,000  Level Cleveland Center
Thu 12:10:06 PM 41.3306 -81.8756 66° East 423 487 45,000  Level Cleveland Center
Thu 12:11:07 PM 41.3767 -81.7303 67° East 425 489 45,000  Level Cleveland Center
Thu 12:12:08 PM 41.4217 -81.5903 67° East 419 482 45,000  Level Cleveland Center
Thu 12:13:09 PM 41.4703 -81.4428 66° East 425 489 45,000  Level Cleveland Center
Thu 12:14:10 PM 41.5183 -81.2942 67° East 430 495 45,000  Level Cleveland Center
Thu 12:15:11 PM 41.5664 -81.1464 66° East 430 495 45,000  Level Cleveland Center
Thu 12:16:12 PM 41.6131 -80.9981 67° East 429 494 45,000  Level Cleveland Center
Thu 12:17:14 PM 41.6594 -80.8514 67° East 426 490 45,000  Level Cleveland Center
Thu 12:18:15 PM 41.7061 -80.7050 67° East 425 489 45,000  Level Cleveland Center
Thu 12:19:16 PM 41.7528 -80.5583 67° East 424 488 45,000  Level Cleveland Center
Thu 12:20:17 PM 41.8058 -80.3869 67° East 423 487 45,000  Level Cleveland Center
Thu 12:21:18 PM 41.8519 -80.2406 67° East 424 488 45,000  Level Cleveland Center
Thu 12:22:19 PM 41.8958 -80.0928 68° East 421 484 45,000  Level Cleveland Center
Thu 12:23:20 PM 41.9386 -79.9519 68° East 424 488 45,000  Level Cleveland Center
Thu 12:24:21 PM 41.9842 -79.8053 67° East 425 489 45,000  Level Cleveland Center
Thu 12:25:22 PM 42.0286 -79.6583 68° East 425 489 45,000  Level Cleveland Center
Thu 12:26:24 PM 42.0731 -79.5114 68° East 425 489 45,000  Level Cleveland Center
Thu 12:27:25 PM 42.1167 -79.3622 68° East 428 493 45,000  Level Cleveland Center
Thu 12:28:26 PM 42.1614 -79.2144 68° East 428 493 45,000  Level Cleveland Center
Thu 12:29:27 PM 42.2139 -79.0697 64° Northeast 431 496 45,000  Level Cleveland Center
Thu 12:30:28 PM 42.2914 -78.9086 57° Northeast 429 494 45,000  Level Cleveland Center
Thu 12:31:29 PM 42.3561 -78.7725 57° Northeast 431 496 45,000  Level Cleveland Center
Thu 12:32:30 PM 42.4211 -78.6375 57° Northeast 429 494 45,000  Level Cleveland Center
Thu 12:33:32 PM 42.4867 -78.5003 57° Northeast 433 498 45,000  Level Cleveland Center
Thu 12:34:33 PM 42.5497 -78.3653 58° Northeast 428 493 45,000  Level Cleveland Center
Thu 12:35:34 PM 42.6150 -78.2272 57° Northeast 435 501 45,000  Level Cleveland Center
Thu 12:36:35 PM 42.6803 -78.0894 57° Northeast 436 502 45,000  Level Cleveland Center
Thu 12:37:36 PM 42.7506 -77.9342 58° Northeast 434 499 45,000  Level Cleveland Center
Thu 12:38:37 PM 42.8192 -77.7889 57° Northeast 438 504 45,000  Level Cleveland Center
Thu 12:39:39 PM 42.8767 -77.6631 58° Northeast 438 504 45,000  Level Cleveland Center
Thu 12:40:40 PM 42.9419 -77.5219 58° Northeast 440 506 45,000 -984 Level Cleveland Center
Thu 12:41:41 PM 43.0094 -77.3767 58° Northeast 454 522 43,000 -2,016 Descending Cleveland Center
Thu 12:42:42 PM 43.0775 -77.2294 58° Northeast 459 528 40,900 -2,361 Descending Cleveland Center
Thu 12:43:43 PM 43.1581 -77.0569 57° Northeast 446 513 38,200 -2,390 Descending Cleveland Center
Thu 12:44:45 PM 43.2183 -76.9183 59° Northeast 428 493 36,000 -2,146 Descending Cleveland Center
Thu 12:45:46 PM 43.2839 -76.7758 58° Northeast 436 502 33,800 -1,475 Descending Cleveland Center
Thu 12:46:47 PM 43.3475 -76.6333 58° Northeast 438 504 33,000 -462 Descending Cleveland Center
Thu 12:47:30 PM 43.3853 -76.5475 59° Northeast 433 498 33,000  Level Boston Center
Thu 12:48:31 PM 43.4475 -76.4067 59° Northeast 432 497 33,000 -496 Level Boston Center
Thu 12:49:31 PM 43.5114 -76.2622 59° Northeast 440 506 32,000 -1,785 Descending Boston Center
Thu 12:50:32 PM 43.5808 -76.1039 59° Northeast 406 467 29,400 -2,361 Descending Boston Center
Thu 12:51:33 PM 43.6344 -75.9783 59° Northeast 383 441 27,200 -2,182 Descending Boston Center
Thu 12:52:33 PM 43.6897 -75.8533 59° Northeast 381 438 25,000 -2,231 Descending Boston Center
Thu 12:53:34 PM 43.7422 -75.7331 59° Northeast 367 422 22,700 -2,182 Descending Boston Center
Thu 12:54:34 PM 43.7908 -75.6189 59° Northeast 348 400 20,600 -1,884 Descending Boston Center
Thu 12:55:35 PM 43.8361 -75.5131 59° Northeast 327 376 18,900 -1,736 Descending Boston Center
Thu 12:56:35 PM 43.8825 -75.4031 60° Northeast 328 377 17,100 -1,736 Descending Boston Center
Thu 12:57:36 PM 43.9264 -75.2989 60° Northeast 318 366 15,400 -1,721 Descending Boston Center
Thu 12:58:37 PM 43.9669 -75.2081 58° Northeast 289 333 13,600 -1,736 Descending Boston Center
Thu 12:59:37 PM 44.0028 -75.1208 60° Northeast 268 308 11,900 -1,289 Descending Boston Center
Thu 01:00:38 PM 44.0417 -75.0328 58° Northeast 266 306 11,000 -443 Descending Boston Center
Thu 01:01:39 PM 44.0789 -74.9411 60° Northeast 271 312 11,000 -744 Level Boston Center
Thu 01:02:39 PM 44.1167 -74.8533 59° Northeast 267 307 9,500 -942 Descending Boston Center
Thu 01:03:40 PM 44.1531 -74.7633 61° Northeast 267 307 9,100 -645 Descending Boston Center
Thu 01:04:40 PM 44.2003 -74.6833 51° Northeast 267 307 8,200 -992 Descending Boston Center
Thu 01:05:41 PM 44.2439 -74.6075 51° Northeast 257 296 7,100 -1,041 Descending Boston Center
Thu 01:06:41 PM 44.2314 -74.5258 102° East 218 251 6,100 -744 Descending Boston Center
Thu 01:07:42 PM 44.2144 -74.4594 110° East 195 224 5,600 -248 Descending Boston Center
Thu 01:08:42 PM 44.2053 -74.3933 101° East 194 223 5,600 -496 Level Boston Center
Thu 01:09:43 PM 44.2458 -74.3472 39° Northeast 194 223 4,600 -984 Descending Boston Center

Login

Don't have an account? Register now (free) for customized features, flight alerts, and more!